createdAt,value
2023-12-05T00:00:15.838Z,1.76
2023-12-05T00:02:18.645Z,1.74
2023-12-05T00:04:20.572Z,1.74
2023-12-05T00:06:23.628Z,1.76
2023-12-05T00:08:27.783Z,1.77
2023-12-05T00:10:31.143Z,1.76
2023-12-05T00:12:34.014Z,1.77
2023-12-05T00:14:36.923Z,1.78
2023-12-05T00:16:39.721Z,1.79
2023-12-05T00:18:45.466Z,1.77
2023-12-05T00:20:48.383Z,1.82
2023-12-05T00:22:50.163Z,1.80
2023-12-05T00:24:54.342Z,1.81
2023-12-05T00:26:57.204Z,1.78
2023-12-05T00:29:00.594Z,1.80
2023-12-05T00:31:03.398Z,1.79
2023-12-05T00:33:06.341Z,1.80
2023-12-05T00:35:09.457Z,1.80
2023-12-05T00:37:12.210Z,1.81
2023-12-05T00:39:13.998Z,1.82
2023-12-05T00:41:18.119Z,1.86
2023-12-05T00:43:21.446Z,1.84
2023-12-05T00:45:24.360Z,1.82
2023-12-05T00:47:27.150Z,1.83
2023-12-05T00:49:29.956Z,1.83
2023-12-05T00:51:32.792Z,1.85
2023-12-05T00:53:35.514Z,1.83
2023-12-05T00:55:37.237Z,1.86
2023-12-05T00:57:41.345Z,1.88
2023-12-05T00:59:44.123Z,1.88
2023-12-05T01:01:46.885Z,1.89
2023-12-05T01:03:52.317Z,1.85
2023-12-05T01:05:54.163Z,1.83
2023-12-05T01:07:56.963Z,1.80
2023-12-05T01:10:00.016Z,1.81
2023-12-05T01:12:01.929Z,1.81
2023-12-05T01:14:06.024Z,1.78
2023-12-05T01:16:09.732Z,1.73
2023-12-05T01:18:13.373Z,1.72
2023-12-05T01:20:17.115Z,1.68
2023-12-05T01:22:19.877Z,1.69
2023-12-05T01:24:22.674Z,1.68
2023-12-05T01:26:25.477Z,1.64
2023-12-05T01:28:28.246Z,1.61
2023-12-05T01:30:32.304Z,1.60
2023-12-05T01:32:35.514Z,1.60
2023-12-05T01:34:38.326Z,1.58
2023-12-05T01:36:41.154Z,1.58
2023-12-05T01:38:43.945Z,1.57
2023-12-05T01:40:47.163Z,1.58
2023-12-05T01:42:49.976Z,1.55
2023-12-05T01:44:54.161Z,1.54
2023-12-05T01:46:58.432Z,1.54
2023-12-05T01:49:08.234Z,1.52
2023-12-05T01:51:18.585Z,1.52
2023-12-05T01:53:23.564Z,1.48
2023-12-05T01:55:28.550Z,1.45
2023-12-05T01:57:30.931Z,1.43
2023-12-05T01:59:34.061Z,1.44
2023-12-05T02:01:37.752Z,1.42
2023-12-05T02:03:42.148Z,1.40
2023-12-05T02:05:45.730Z,1.39
2023-12-05T02:07:49.068Z,1.38
2023-12-05T02:09:51.842Z,1.39
2023-12-05T02:11:54.620Z,1.34
2023-12-05T02:13:57.556Z,1.35
2023-12-05T02:16:09.695Z,1.34
2023-12-05T02:18:16.840Z,1.32
2023-12-05T02:20:27.513Z,1.31
2023-12-05T02:22:58.716Z,1.36
2023-12-05T02:25:15.659Z,1.36
2023-12-05T02:27:26.724Z,1.34
2023-12-05T02:29:31.446Z,1.39
2023-12-05T02:31:34.271Z,1.42
2023-12-05T02:33:37.436Z,1.43
2023-12-05T02:35:40.472Z,1.45
2023-12-05T02:37:54.622Z,1.46
2023-12-05T02:40:08.289Z,1.50
2023-12-05T02:42:14.065Z,1.49
2023-12-05T02:44:18.772Z,1.54
2023-12-05T02:46:23.511Z,1.57
2023-12-05T02:48:27.228Z,1.55
2023-12-05T02:50:29.433Z,1.54
2023-12-05T02:52:32.241Z,1.60
2023-12-05T02:54:35.079Z,1.53
2023-12-05T02:56:37.238Z,1.58
2023-12-05T02:58:40.042Z,1.57
2023-12-05T03:00:43.664Z,1.60
2023-12-05T03:02:47.842Z,1.63
2023-12-05T03:04:50.648Z,1.69
2023-12-05T03:06:53.562Z,1.70
2023-12-05T03:08:59.000Z,1.71
2023-12-05T03:11:07.267Z,1.72
2023-12-05T03:13:12.588Z,1.72
2023-12-05T03:15:15.786Z,1.77
2023-12-05T03:17:17.720Z,1.73
2023-12-05T03:19:21.998Z,1.75
2023-12-05T03:21:25.027Z,1.82
2023-12-05T03:23:28.765Z,1.86
2023-12-05T03:25:31.600Z,1.86
2023-12-05T03:27:34.388Z,1.88
2023-12-05T03:29:37.214Z,1.90
2023-12-05T03:31:41.971Z,1.91
2023-12-05T03:33:45.342Z,1.95
2023-12-05T03:35:49.496Z,1.92
2023-12-05T03:37:52.254Z,1.95
2023-12-05T03:39:55.065Z,1.94
2023-12-05T03:41:57.958Z,1.98
2023-12-05T03:44:00.731Z,1.98
2023-12-05T03:46:03.642Z,1.97
2023-12-05T03:48:06.842Z,1.98
2023-12-05T03:50:10.481Z,1.97
2023-12-05T03:52:14.617Z,1.98
2023-12-05T03:54:17.424Z,2.00
2023-12-05T03:56:20.263Z,1.96
2023-12-05T03:58:23.081Z,1.99
2023-12-05T04:00:26.400Z,1.96
2023-12-05T04:02:29.228Z,1.96
2023-12-05T04:04:32.859Z,1.92
2023-12-05T04:06:34.819Z,1.96
2023-12-05T04:08:39.071Z,1.98
2023-12-05T04:10:41.889Z,2.02
2023-12-05T04:12:43.760Z,2.03
2023-12-05T04:14:46.768Z,2.06
2023-12-05T04:16:52.619Z,2.07
2023-12-05T04:18:54.898Z,2.08
2023-12-05T04:20:57.779Z,2.10
2023-12-05T04:23:00.551Z,2.11
2023-12-05T04:25:04.989Z,2.17
2023-12-05T04:27:07.762Z,2.16
2023-12-05T04:29:11.425Z,2.14
2023-12-05T04:31:14.709Z,2.19
2023-12-05T04:33:17.849Z,2.23
2023-12-05T04:35:20.916Z,2.21
2023-12-05T04:37:23.754Z,2.23
2023-12-05T04:39:26.597Z,2.24
2023-12-05T04:41:35.101Z,2.23
2023-12-05T04:43:38.263Z,2.32
2023-12-05T04:45:42.636Z,2.34
2023-12-05T04:47:46.110Z,2.36
2023-12-05T04:49:49.512Z,2.38
2023-12-05T04:51:52.366Z,2.35
2023-12-05T04:53:55.166Z,2.37
2023-12-05T04:55:57.928Z,2.40
2023-12-05T04:58:02.082Z,2.39
2023-12-05T05:00:05.702Z,2.39
2023-12-05T05:02:08.710Z,2.39
2023-12-05T05:04:11.584Z,2.38
2023-12-05T05:06:14.676Z,2.42
2023-12-05T05:08:17.526Z,2.39
2023-12-05T05:10:20.768Z,2.40
2023-12-05T05:12:23.601Z,2.45
2023-12-05T05:14:27.701Z,2.47
2023-12-05T05:16:29.545Z,2.51
2023-12-05T05:18:32.937Z,2.53
2023-12-05T05:20:35.790Z,2.53
2023-12-05T05:22:38.584Z,2.51
2023-12-05T05:24:41.405Z,2.51
2023-12-05T05:26:43.200Z,2.49
2023-12-05T05:28:46.026Z,2.46
2023-12-05T05:30:55.582Z,2.45
2023-12-05T05:32:58.430Z,2.45
2023-12-05T05:35:00.508Z,2.45
2023-12-05T05:37:03.344Z,2.46
2023-12-05T05:39:06.583Z,2.47
2023-12-05T05:41:10.167Z,2.44
2023-12-05T05:43:11.880Z,2.46
2023-12-05T05:45:14.591Z,2.43
2023-12-05T05:47:17.752Z,2.41
2023-12-05T05:49:20.624Z,2.38
2023-12-05T05:51:23.461Z,2.38
2023-12-05T05:53:26.236Z,2.40
2023-12-05T05:55:28.950Z,2.44
2023-12-05T05:57:33.176Z,2.40
2023-12-05T05:59:35.908Z,2.41
2023-12-05T06:01:37.662Z,2.42
2023-12-05T06:03:42.440Z,2.41
2023-12-05T06:05:45.350Z,2.48
2023-12-05T06:07:47.089Z,2.47
2023-12-05T06:09:49.861Z,2.42
2023-12-05T06:11:52.630Z,2.37
2023-12-05T06:13:55.781Z,2.35
2023-12-05T06:15:58.487Z,2.38
2023-12-05T06:18:00.273Z,2.34
2023-12-05T06:20:06.543Z,2.35
2023-12-05T06:22:09.401Z,2.37
2023-12-05T06:24:12.629Z,2.38
2023-12-05T06:26:15.386Z,2.36
2023-12-05T06:28:18.061Z,2.37
2023-12-05T06:30:26.902Z,2.37
2023-12-05T06:32:30.289Z,2.35
2023-12-05T06:34:33.103Z,2.36
2023-12-05T06:36:37.341Z,2.35
2023-12-05T06:38:40.074Z,2.37
2023-12-05T06:40:42.826Z,2.38
2023-12-05T06:42:45.558Z,2.41
2023-12-05T06:44:47.333Z,2.43
2023-12-05T06:46:50.185Z,2.43
2023-12-05T06:48:53.095Z,2.42
2023-12-05T06:50:55.931Z,2.44
2023-12-05T06:53:01.106Z,2.41
2023-12-05T06:55:04.072Z,2.38
2023-12-05T06:57:07.198Z,2.39
2023-12-05T06:59:08.935Z,2.38
2023-12-05T07:01:11.678Z,2.37
2023-12-05T07:03:14.537Z,2.39
2023-12-05T07:05:17.545Z,2.39
2023-12-05T07:07:20.398Z,2.37
2023-12-05T07:09:23.534Z,2.37
2023-12-05T07:11:27.395Z,2.37
2023-12-05T07:13:30.106Z,2.34
2023-12-05T07:15:33.152Z,2.34
2023-12-05T07:17:35.994Z,2.36
2023-12-05T07:19:38.789Z,2.30
2023-12-05T07:21:41.536Z,2.32
2023-12-05T07:23:46.831Z,2.32
2023-12-05T07:25:55.947Z,2.34
2023-12-05T07:27:58.653Z,2.36
2023-12-05T07:30:01.407Z,2.38
2023-12-05T07:32:04.362Z,2.40
2023-12-05T07:34:07.328Z,2.42
2023-12-05T07:36:11.534Z,2.44
2023-12-05T07:38:14.263Z,2.47
2023-12-05T07:40:17.176Z,2.48
2023-12-05T07:42:21.316Z,2.47
2023-12-05T07:44:24.005Z,2.52
2023-12-05T07:46:26.770Z,2.53
2023-12-05T07:48:29.570Z,2.58
2023-12-05T07:50:32.357Z,2.63
2023-12-05T07:52:34.059Z,2.71
2023-12-05T07:54:36.736Z,2.79
2023-12-05T07:56:39.465Z,2.86
2023-12-05T07:58:42.570Z,2.90
2023-12-05T08:00:45.310Z,2.98
2023-12-05T08:02:48.884Z,3.03
2023-12-05T08:04:50.721Z,3.07
2023-12-05T08:06:53.605Z,3.11
2023-12-05T08:08:56.324Z,3.15
2023-12-05T08:10:59.901Z,3.20
2023-12-05T08:13:02.808Z,3.22
2023-12-05T08:15:08.370Z,3.25
2023-12-05T08:17:11.081Z,3.27
2023-12-05T08:19:14.152Z,3.26
2023-12-05T08:21:16.927Z,3.29
2023-12-05T08:23:20.417Z,3.28
2023-12-05T08:25:23.158Z,3.34
2023-12-05T08:27:25.888Z,3.35
2023-12-05T08:29:28.590Z,3.33
2023-12-05T08:31:32.805Z,3.29
2023-12-05T08:33:35.636Z,3.28
2023-12-05T08:35:38.404Z,3.29
2023-12-05T08:37:42.290Z,3.31
2023-12-05T08:39:45.052Z,3.33
2023-12-05T08:41:47.747Z,3.35
2023-12-05T08:43:49.586Z,3.43
2023-12-05T08:45:52.605Z,3.50
2023-12-05T08:47:56.846Z,3.51
2023-12-05T08:49:59.568Z,3.62
2023-12-05T08:52:02.352Z,3.72
2023-12-05T08:54:05.319Z,3.72
2023-12-05T08:56:09.663Z,3.75
2023-12-05T08:58:11.402Z,3.84
2023-12-05T09:00:14.786Z,3.83
2023-12-05T09:02:17.499Z,3.86
2023-12-05T09:04:21.680Z,3.90
2023-12-05T09:06:25.024Z,3.90
2023-12-05T09:08:27.860Z,3.88
2023-12-05T09:10:30.640Z,3.89
2023-12-05T09:12:33.463Z,3.89
2023-12-05T09:14:36.471Z,3.92
2023-12-05T09:16:39.882Z,3.91
2023-12-05T09:18:43.040Z,3.92
2023-12-05T09:20:47.126Z,3.91
2023-12-05T09:22:53.775Z,3.93
2023-12-05T09:24:58.227Z,3.94
2023-12-05T09:27:00.030Z,3.95
2023-12-05T09:31:06.478Z,4.00
2023-12-05T09:33:09.214Z,4.07
2023-12-05T09:35:11.906Z,4.11
2023-12-05T09:37:16.109Z,4.14
2023-12-05T09:39:18.863Z,4.20
2023-12-05T09:41:22.041Z,4.24
2023-12-05T09:43:24.967Z,4.28
2023-12-05T09:45:34.811Z,4.37
2023-12-05T09:47:37.975Z,4.40
2023-12-05T09:49:42.047Z,4.44
2023-12-05T09:51:44.982Z,4.50
2023-12-05T09:53:50.269Z,4.51
2023-12-05T09:55:53.421Z,4.49
2023-12-05T09:57:58.322Z,4.57
2023-12-05T10:00:01.088Z,4.59
2023-12-05T10:02:04.241Z,4.63
2023-12-05T10:04:12.284Z,4.67
2023-12-05T10:06:19.897Z,4.75
2023-12-05T10:08:23.871Z,4.82
2023-12-05T10:10:30.628Z,4.81
2023-12-05T10:12:34.021Z,4.83
2023-12-05T10:14:37.632Z,4.81
2023-12-05T10:16:40.738Z,4.86
2023-12-05T10:18:46.384Z,5.01
2023-12-05T10:20:49.240Z,5.17
2023-12-05T10:22:53.376Z,5.30
2023-12-05T10:24:57.166Z,5.39
2023-12-05T10:27:02.502Z,5.60
2023-12-05T10:29:05.562Z,5.73
2023-12-05T10:31:14.729Z,5.91
2023-12-05T10:33:20.180Z,5.89
2023-12-05T10:35:28.889Z,5.97
2023-12-05T10:37:32.057Z,6.14
2023-12-05T10:39:37.404Z,6.34
2023-12-05T10:41:40.104Z,6.50
2023-12-05T10:43:50.252Z,6.72
2023-12-05T10:45:53.371Z,6.74
2023-12-05T10:47:56.370Z,6.81
2023-12-05T10:49:59.091Z,6.90
2023-12-05T10:52:04.328Z,6.97
2023-12-05T10:54:07.569Z,6.96
2023-12-05T10:56:14.001Z,6.91
2023-12-05T10:58:16.969Z,6.92
2023-12-05T11:00:21.230Z,6.98
2023-12-05T11:02:24.057Z,7.09
2023-12-05T11:04:27.088Z,7.15
2023-12-05T11:06:30.002Z,7.23
2023-12-05T11:08:34.094Z,7.30
2023-12-05T11:10:36.918Z,7.31
2023-12-05T11:12:41.524Z,7.40
2023-12-05T11:14:48.812Z,7.54
2023-12-05T11:16:55.974Z,7.64
2023-12-05T11:19:11.405Z,7.64
2023-12-05T11:21:31.068Z,7.82
2023-12-05T11:24:05.691Z,7.82
2023-12-05T11:26:23.515Z,7.92
2023-12-05T11:29:00.222Z,8.01
2023-12-05T11:31:13.722Z,8.20
2023-12-05T11:33:33.333Z,8.14
2023-12-05T11:35:48.616Z,8.26
2023-12-05T11:38:06.892Z,8.45
2023-12-05T11:40:09.983Z,8.39
2023-12-05T11:42:15.541Z,8.49
2023-12-05T11:44:22.173Z,8.58
2023-12-05T11:46:24.988Z,8.68
2023-12-05T11:48:30.927Z,8.64
2023-12-05T11:50:44.146Z,8.53
2023-12-05T11:52:46.906Z,8.68
2023-12-05T11:54:49.442Z,8.98
2023-12-05T11:56:53.231Z,9.19
2023-12-05T11:59:25.100Z,9.26
2023-12-05T12:01:27.931Z,9.45
2023-12-05T12:03:43.816Z,9.50
2023-12-05T12:05:50.033Z,9.77
2023-12-05T12:07:53.861Z,9.81
2023-12-05T12:09:57.010Z,10.05
2023-12-05T12:11:59.065Z,10.13
2023-12-05T12:14:13.418Z,10.19
2023-12-05T12:16:19.494Z,10.30
2023-12-05T12:18:30.556Z,9.67
2023-12-05T12:20:38.999Z,9.52
2023-12-05T12:22:43.020Z,9.72
2023-12-05T12:24:45.856Z,9.79
2023-12-05T12:26:54.764Z,9.69
2023-12-05T12:29:07.177Z,9.82
2023-12-05T12:31:27.952Z,9.80
2023-12-05T12:33:38.341Z,9.67
2023-12-05T12:35:41.445Z,9.84
2023-12-05T12:37:52.070Z,9.95
2023-12-05T12:39:55.952Z,10.15
2023-12-05T12:41:59.425Z,10.30
2023-12-05T12:44:02.185Z,10.32
2023-12-05T12:46:05.401Z,10.18
2023-12-05T12:48:10.062Z,10.29
2023-12-05T12:50:12.980Z,10.53
2023-12-05T12:52:16.419Z,10.33
2023-12-05T12:54:19.860Z,10.01
2023-12-05T12:56:24.164Z,9.67
2023-12-05T12:58:34.868Z,9.27
2023-12-05T13:00:41.219Z,8.90
2023-12-05T13:02:44.063Z,8.63
2023-12-05T13:04:48.263Z,8.39
2023-12-05T13:06:51.176Z,8.32
2023-12-05T13:08:53.294Z,8.17
2023-12-05T13:10:57.098Z,8.01
2023-12-05T13:13:00.643Z,7.72
2023-12-05T13:15:09.704Z,7.56
2023-12-05T13:17:14.094Z,7.39
2023-12-05T13:19:24.229Z,7.29
2023-12-05T13:21:34.203Z,7.19
2023-12-05T13:23:37.041Z,7.10
2023-12-05T13:25:45.657Z,7.12
2023-12-05T13:27:49.046Z,7.06
2023-12-05T13:29:52.791Z,7.02
2023-12-05T13:31:55.899Z,6.84
2023-12-05T13:33:58.806Z,6.74
2023-12-05T13:36:01.688Z,6.63
2023-12-05T13:38:05.832Z,6.50
2023-12-05T13:40:10.900Z,6.36
2023-12-05T13:42:14.147Z,6.31
2023-12-05T13:44:17.234Z,6.33
2023-12-05T13:46:20.278Z,6.22
2023-12-05T13:48:23.283Z,6.14
2023-12-05T13:50:26.910Z,6.18
2023-12-05T13:52:29.688Z,6.07
2023-12-05T13:54:33.820Z,6.02
2023-12-05T13:56:36.645Z,5.96
2023-12-05T13:58:39.934Z,5.86
2023-12-05T14:00:42.750Z,5.75
2023-12-05T14:02:45.888Z,5.65
2023-12-05T14:04:48.916Z,5.61
2023-12-05T14:06:51.856Z,5.57
2023-12-05T14:08:54.700Z,5.61
2023-12-05T14:10:58.925Z,5.58
2023-12-05T14:13:01.805Z,5.56
2023-12-05T14:15:05.100Z,5.52
2023-12-05T14:17:08.693Z,5.44
2023-12-05T14:19:11.732Z,5.36
2023-12-05T14:21:15.199Z,5.32
2023-12-05T14:23:19.730Z,5.30
2023-12-05T14:25:21.554Z,5.23
2023-12-05T14:27:26.288Z,5.17
2023-12-05T14:29:29.124Z,5.10
2023-12-05T14:31:31.885Z,4.97
2023-12-05T14:33:34.761Z,4.92
2023-12-05T14:35:37.541Z,4.87
2023-12-05T14:37:40.402Z,4.86
2023-12-05T14:39:44.941Z,4.82
2023-12-05T14:41:49.632Z,4.77
2023-12-05T14:43:53.755Z,4.69
2023-12-05T14:45:57.269Z,4.68
2023-12-05T14:48:00.104Z,4.65
2023-12-05T14:50:02.995Z,4.63
2023-12-05T14:52:06.744Z,4.62
2023-12-05T14:54:09.624Z,4.54
2023-12-05T14:56:12.766Z,4.49
2023-12-05T14:58:15.812Z,4.43
2023-12-05T15:00:22.516Z,4.37
2023-12-05T15:02:25.267Z,4.35
2023-12-05T15:04:28.108Z,4.30
2023-12-05T15:06:31.056Z,4.26
2023-12-05T15:08:32.883Z,4.24
2023-12-05T15:10:35.703Z,4.20
2023-12-05T15:12:38.579Z,4.17
2023-12-05T15:14:42.005Z,4.12
2023-12-05T15:16:46.427Z,4.09
2023-12-05T15:18:49.432Z,4.05
2023-12-05T15:20:52.630Z,4.06
2023-12-05T15:22:55.438Z,4.04
2023-12-05T15:24:58.772Z,4.02
2023-12-05T15:27:03.574Z,3.95
2023-12-05T15:29:06.319Z,3.92
2023-12-05T15:31:09.735Z,3.91
2023-12-05T15:33:15.923Z,3.88
2023-12-05T15:35:19.727Z,3.84
2023-12-05T15:37:22.656Z,3.83
2023-12-05T15:39:25.583Z,3.81
2023-12-05T15:41:28.395Z,3.77
2023-12-05T15:43:30.133Z,3.76
2023-12-05T15:45:33.171Z,3.77
2023-12-05T15:47:36.778Z,3.75
2023-12-05T15:49:41.570Z,3.72
2023-12-05T15:51:44.393Z,3.69
2023-12-05T15:53:47.653Z,3.69
2023-12-05T15:55:50.621Z,3.71
2023-12-05T15:57:53.525Z,3.67
2023-12-05T15:59:56.318Z,3.67
2023-12-05T16:01:59.186Z,3.67
2023-12-05T16:04:02.104Z,3.63
2023-12-05T16:06:06.329Z,3.65
2023-12-05T16:08:09.184Z,3.63
2023-12-05T16:10:11.795Z,3.62
2023-12-05T16:12:14.575Z,3.58
2023-12-05T16:14:16.980Z,3.58
2023-12-05T16:16:19.754Z,3.57
2023-12-05T16:18:22.295Z,3.56
2023-12-05T16:20:25.297Z,3.56
2023-12-05T16:22:29.408Z,3.54
2023-12-05T16:24:32.146Z,3.51
2023-12-05T16:26:36.972Z,3.48
2023-12-05T16:28:39.695Z,3.47
2023-12-05T16:30:42.460Z,3.46
2023-12-05T16:32:44.369Z,3.45
2023-12-05T16:34:47.287Z,3.43
2023-12-05T16:36:50.100Z,3.43
2023-12-05T16:38:54.310Z,3.42
2023-12-05T16:40:57.038Z,3.39
2023-12-05T16:42:59.806Z,3.36
2023-12-05T16:45:02.558Z,3.39
2023-12-05T16:47:05.970Z,3.37
2023-12-05T16:49:07.934Z,3.34
2023-12-05T16:51:10.823Z,3.33
2023-12-05T16:53:13.635Z,3.31
2023-12-05T16:55:17.829Z,3.29
2023-12-05T16:57:21.619Z,3.28
2023-12-05T16:59:31.661Z,3.25
2023-12-05T17:01:36.724Z,3.22
2023-12-05T17:03:39.730Z,3.21
2023-12-05T17:05:42.675Z,3.22
2023-12-05T17:07:46.453Z,3.19
2023-12-05T17:09:49.252Z,3.21
2023-12-05T17:11:52.621Z,3.18
2023-12-05T17:13:55.377Z,3.20
2023-12-05T17:15:58.166Z,3.18
2023-12-05T17:18:00.933Z,3.17
2023-12-05T17:20:04.448Z,3.15
2023-12-05T17:22:06.434Z,3.15
2023-12-05T17:24:09.342Z,3.15
2023-12-05T17:26:12.042Z,3.14
2023-12-05T17:28:16.258Z,3.14
2023-12-05T17:30:19.010Z,3.13
2023-12-05T17:32:27.072Z,3.13
2023-12-05T17:34:30.017Z,3.11
2023-12-05T17:36:32.859Z,3.06
2023-12-05T17:38:35.588Z,3.09
2023-12-05T17:40:38.301Z,3.08
2023-12-05T17:42:41.004Z,3.07
2023-12-05T17:44:44.335Z,3.03
2023-12-05T17:46:47.293Z,3.03
2023-12-05T17:48:50.157Z,3.03
2023-12-05T17:50:52.904Z,3.04
2023-12-05T17:52:55.662Z,3.03
2023-12-05T17:54:57.404Z,3.04
2023-12-05T17:57:00.188Z,3.02
2023-12-05T17:59:02.981Z,3.01
2023-12-05T18:01:07.459Z,3.00
2023-12-05T18:03:10.321Z,2.98
2023-12-05T18:05:13.156Z,2.99
2023-12-05T18:07:51.527Z,2.97
2023-12-05T18:09:39.725Z,2.90
2023-12-05T18:11:42.503Z,2.94
2023-12-05T18:13:45.300Z,2.91
2023-12-05T18:15:48.189Z,2.92
2023-12-05T18:17:52.456Z,2.89
2023-12-05T18:19:54.507Z,2.90
2023-12-05T18:21:57.490Z,2.90
2023-12-05T18:24:03.587Z,2.89
2023-12-05T18:26:06.629Z,2.86
2023-12-05T18:28:08.495Z,2.84
2023-12-05T18:30:12.229Z,2.83
2023-12-05T18:32:15.163Z,2.81
2023-12-05T18:34:19.313Z,2.79
2023-12-05T18:36:22.425Z,2.80
2023-12-05T18:38:24.372Z,2.77
2023-12-05T18:40:27.146Z,2.74
2023-12-05T18:42:29.990Z,2.74
2023-12-05T18:44:32.827Z,2.70
2023-12-05T18:46:37.143Z,2.70
2023-12-05T18:48:39.966Z,2.74
2023-12-05T18:50:44.234Z,2.75
2023-12-05T18:52:46.093Z,2.73
2023-12-05T18:54:48.930Z,2.70
2023-12-05T18:56:51.808Z,2.67
2023-12-05T18:58:55.862Z,2.70
2023-12-05T19:00:59.450Z,2.68
2023-12-05T19:03:01.529Z,2.68
2023-12-05T19:05:04.502Z,2.65
2023-12-05T19:07:11.011Z,2.65
2023-12-05T19:09:13.872Z,2.63
2023-12-05T19:11:17.607Z,2.62
2023-12-05T19:13:20.432Z,2.57
2023-12-05T19:15:23.981Z,2.58
2023-12-05T19:17:26.873Z,2.58
2023-12-05T19:19:28.868Z,2.57
2023-12-05T19:21:32.006Z,2.54
2023-12-05T19:23:36.805Z,2.58
2023-12-05T19:25:40.637Z,2.57
2023-12-05T19:27:43.462Z,2.54
2023-12-05T19:29:46.350Z,2.53
2023-12-05T19:31:49.169Z,2.50
2023-12-05T19:33:51.296Z,2.49
2023-12-05T19:35:54.218Z,2.48
2023-12-05T19:37:57.232Z,2.50
2023-12-05T19:40:00.522Z,2.51
2023-12-05T19:42:03.973Z,2.46
2023-12-05T19:44:09.580Z,2.46
2023-12-05T19:46:12.465Z,2.45
2023-12-05T19:48:15.255Z,2.45
2023-12-05T19:50:18.437Z,2.41
2023-12-05T19:52:21.239Z,2.37
2023-12-05T19:54:23.078Z,2.38
2023-12-05T19:56:27.569Z,2.36
2023-12-05T19:58:30.381Z,2.34
2023-12-05T20:00:32.393Z,2.33
2023-12-05T20:02:35.271Z,2.34
2023-12-05T20:04:38.248Z,2.36
2023-12-05T20:06:41.637Z,2.36
2023-12-05T20:08:44.449Z,2.37
2023-12-05T20:10:47.246Z,2.36
2023-12-05T20:12:51.461Z,2.33
2023-12-05T20:14:54.314Z,2.37
2023-12-05T20:16:57.086Z,2.35
2023-12-05T20:19:00.112Z,2.34
2023-12-05T20:21:03.897Z,2.34
2023-12-05T20:23:06.751Z,2.33
2023-12-05T20:25:09.967Z,2.30
2023-12-05T20:27:12.750Z,2.33
2023-12-05T20:29:16.890Z,2.32
2023-12-05T20:31:20.381Z,2.32
2023-12-05T20:33:23.567Z,2.31
2023-12-05T20:35:27.102Z,2.35
2023-12-05T20:37:29.878Z,2.37
2023-12-05T20:39:36.155Z,2.37
2023-12-05T20:41:39.260Z,2.34
2023-12-05T20:43:43.536Z,2.35
2023-12-05T20:45:48.462Z,2.35
2023-12-05T20:47:51.122Z,2.31
2023-12-05T20:49:54.277Z,2.31
2023-12-05T20:51:57.061Z,2.29
2023-12-05T20:53:59.994Z,2.28
2023-12-05T20:56:03.158Z,2.30
2023-12-05T20:58:07.575Z,2.33
2023-12-05T21:00:11.358Z,2.30
2023-12-05T21:02:15.470Z,2.30
2023-12-05T21:04:18.946Z,2.25
2023-12-05T21:06:21.750Z,2.27
2023-12-05T21:09:07.369Z,2.27
2023-12-05T21:10:48.291Z,2.27
2023-12-05T21:12:57.354Z,2.25
2023-12-05T21:14:59.205Z,2.23
2023-12-05T21:17:01.984Z,2.21
2023-12-05T21:19:05.254Z,2.22
2023-12-05T21:21:08.332Z,2.23
2023-12-05T21:23:16.785Z,2.18
2023-12-05T21:25:19.707Z,2.18
2023-12-05T21:27:23.183Z,2.17
2023-12-05T21:29:26.757Z,2.18
2023-12-05T21:31:31.607Z,2.18
2023-12-05T21:33:34.548Z,2.17
2023-12-05T21:35:38.677Z,2.17
2023-12-05T21:37:44.286Z,2.20
2023-12-05T21:39:47.114Z,2.18
2023-12-05T21:41:50.372Z,2.17
2023-12-05T21:43:53.156Z,2.20
2023-12-05T21:45:57.156Z,2.20
2023-12-05T21:48:00.090Z,2.20
2023-12-05T21:50:03.139Z,2.16
2023-12-05T21:52:08.499Z,2.20
2023-12-05T21:54:11.316Z,2.21
2023-12-05T21:56:14.233Z,2.21
2023-12-05T21:58:17.651Z,2.20
2023-12-05T22:00:22.183Z,2.21
2023-12-05T22:02:25.644Z,2.17
2023-12-05T22:04:33.690Z,2.14
2023-12-05T22:06:35.703Z,2.17
2023-12-05T22:08:39.848Z,2.17
2023-12-05T22:10:42.841Z,2.16
2023-12-05T22:12:45.852Z,2.16
2023-12-05T22:14:48.678Z,2.15
2023-12-05T22:16:51.565Z,2.17
2023-12-05T22:18:54.487Z,2.15
2023-12-05T22:20:57.557Z,2.14
2023-12-05T22:23:00.434Z,2.15
2023-12-05T22:25:04.990Z,2.17
2023-12-05T22:27:08.009Z,2.16
2023-12-05T22:29:14.154Z,2.14
2023-12-05T22:31:24.212Z,2.17
2023-12-05T22:33:27.213Z,2.20
2023-12-05T22:35:30.055Z,2.20
2023-12-05T22:37:32.919Z,2.18
2023-12-05T22:39:35.832Z,2.20
2023-12-05T22:41:43.446Z,2.21
2023-12-05T22:43:47.713Z,2.23
2023-12-05T22:45:51.780Z,2.23
2023-12-05T22:47:54.713Z,2.25
2023-12-05T22:49:57.531Z,2.23
2023-12-05T22:52:00.356Z,2.21
2023-12-05T22:54:03.213Z,2.21
2023-12-05T22:56:06.997Z,2.24
2023-12-05T22:58:13.174Z,2.24
2023-12-05T23:00:24.877Z,2.21
2023-12-05T23:02:28.197Z,2.20
2023-12-05T23:04:30.975Z,2.18
2023-12-05T23:06:33.808Z,2.18
2023-12-05T23:08:36.647Z,2.21
2023-12-05T23:10:39.904Z,2.20
2023-12-05T23:12:43.577Z,2.17
2023-12-05T23:14:47.755Z,2.17
2023-12-05T23:16:50.663Z,2.18
2023-12-05T23:18:53.546Z,2.16
2023-12-05T23:20:56.370Z,2.11
2023-12-05T23:22:59.139Z,2.13
2023-12-05T23:25:02.193Z,2.15
2023-12-05T23:27:05.367Z,2.16
2023-12-05T23:29:08.205Z,2.18
2023-12-05T23:31:12.442Z,2.16
2023-12-05T23:33:15.648Z,2.13
2023-12-05T23:35:18.474Z,2.13
2023-12-05T23:37:22.282Z,2.16
2023-12-05T23:39:25.225Z,2.14
2023-12-05T23:41:27.962Z,2.19
2023-12-05T23:43:30.784Z,2.19
2023-12-05T23:45:33.667Z,2.20
2023-12-05T23:47:37.795Z,2.20
2023-12-05T23:49:40.609Z,2.22
2023-12-05T23:51:43.703Z,2.21
2023-12-05T23:53:46.470Z,2.21
2023-12-05T23:55:49.224Z,2.21
2023-12-05T23:57:52.159Z,2.20
2023-12-05T23:59:54.986Z,2.22
